Time;durP1;ratioP1;P1;durP2;ratioP2;P2;SDS_P1;SDS_P2;PMS_P1;PMS_P2;Temp;Humidity;BMP_temperature;BMP_pressure;BME280_temperature;BME280_humidity;BME280_pressure;Samples;Min_cycle;Max_cycle;Signal;HPM_P1;HPM_P2
2022/01/07 00:00:27;;;;;;;;;;;20.10;39.90;;;;;;5108219;28;19923;-43
2022/01/07 00:02:56;;;;;;;;;;;20.10;39.80;;;;;;5098538;28;19927;-47
2022/01/07 00:05:24;;;;;;;;;;;20.10;39.90;;;;;;5093193;28;19951;-47
2022/01/07 00:07:51;;;;;;;;;;;20.10;39.80;;;;;;5088527;28;19924;-49
2022/01/07 00:10:18;;;;;;;;;;;20.10;39.80;;;;;;5117304;28;19928;-41
2022/01/07 00:12:45;;;;;;;;;;;20.10;39.80;;;;;;5096119;28;19980;-45
2022/01/07 00:15:12;;;;;;;;;;;20.10;39.80;;;;;;5085963;28;19942;-47
2022/01/07 00:17:39;;;;;;;;;;;20.20;39.90;;;;;;5120636;27;19987;-44
2022/01/07 00:20:08;;;;;;;;;;;20.10;39.90;;;;;;5129168;27;19927;-43
2022/01/07 00:22:37;;;;;;;;;;;20.10;39.90;;;;;;5097715;28;19951;-45
2022/01/07 00:25:04;;;;;;;;;;;20.10;39.90;;;;;;5117732;28;19965;-45
2022/01/07 00:27:31;;;;;;;;;;;20.10;39.80;;;;;;5116904;27;19932;-47
2022/01/07 00:29:58;;;;;;;;;;;20.10;39.80;;;;;;5098600;28;19970;-45
2022/01/07 00:32:25;;;;;;;;;;;20.10;39.80;;;;;;5098833;27;19982;-43
2022/01/07 00:34:51;;;;;;;;;;;20.10;39.90;;;;;;5103741;28;19927;-45
2022/01/07 00:37:18;;;;;;;;;;;20.10;39.80;;;;;;5099028;28;19937;-48
2022/01/07 00:39:48;;;;;;;;;;;20.10;39.80;;;;;;5090531;28;19919;-47
2022/01/07 00:42:15;;;;;;;;;;;20.10;39.90;;;;;;5097975;28;19927;-46
2022/01/07 00:44:41;;;;;;;;;;;20.10;39.80;;;;;;5085009;28;20614;-49
2022/01/07 00:47:09;;;;;;;;;;;20.10;39.80;;;;;;5095797;28;19981;-44
2022/01/07 00:49:35;;;;;;;;;;;20.10;39.80;;;;;;5112608;28;19955;-46
2022/01/07 00:52:02;;;;;;;;;;;20.10;39.80;;;;;;5080640;28;19975;-47
2022/01/07 00:54:29;;;;;;;;;;;20.10;39.80;;;;;;5091812;28;19924;-43
2022/01/07 00:56:57;;;;;;;;;;;20.10;39.80;;;;;;5097930;28;19924;-45
2022/01/07 00:59:24;;;;;;;;;;;20.10;39.80;;;;;;5110761;27;19966;-43
2022/01/07 01:01:51;;;;;;;;;;;20.10;39.80;;;;;;5103451;28;19972;-41
2022/01/07 01:04:18;;;;;;;;;;;20.10;39.80;;;;;;5105910;28;19924;-45
2022/01/07 01:06:45;;;;;;;;;;;20.10;39.80;;;;;;5095627;28;19924;-43
2022/01/07 01:09:12;;;;;;;;;;;20.10;39.80;;;;;;5082918;28;19924;-48
2022/01/07 01:11:39;;;;;;;;;;;20.10;39.80;;;;;;5095778;28;19927;-43
2022/01/07 01:14:07;;;;;;;;;;;20.10;39.80;;;;;;5089946;28;19924;-45
2022/01/07 01:16:34;;;;;;;;;;;20.10;39.80;;;;;;5098396;28;19931;-50
2022/01/07 01:19:01;;;;;;;;;;;20.10;39.80;;;;;;5117110;28;19966;-44
2022/01/07 01:21:27;;;;;;;;;;;20.10;39.80;;;;;;5097774;28;19959;-42
2022/01/07 01:23:54;;;;;;;;;;;20.10;39.80;;;;;;5097270;28;19924;-42
2022/01/07 01:26:21;;;;;;;;;;;20.10;39.80;;;;;;5098318;28;19931;-44
2022/01/07 01:28:48;;;;;;;;;;;20.10;39.80;;;;;;5099001;28;19924;-47
2022/01/07 01:31:17;;;;;;;;;;;20.10;39.80;;;;;;5103033;28;19924;-45
2022/01/07 01:33:44;;;;;;;;;;;20.10;39.80;;;;;;5099401;28;19930;-41
2022/01/07 01:36:11;;;;;;;;;;;20.10;39.80;;;;;;5106062;28;19928;-44
2022/01/07 01:38:38;;;;;;;;;;;20.10;39.80;;;;;;5096989;28;20472;-45
2022/01/07 01:41:05;;;;;;;;;;;20.10;39.80;;;;;;5115373;28;20385;-45
2022/01/07 01:43:32;;;;;;;;;;;20.10;39.80;;;;;;5115189;28;20368;-44
2022/01/07 01:45:59;;;;;;;;;;;20.10;39.80;;;;;;5103890;28;19928;-45
2022/01/07 01:48:27;;;;;;;;;;;20.10;39.80;;;;;;5077788;28;19932;-41
2022/01/07 01:50:54;;;;;;;;;;;20.10;39.80;;;;;;5093762;28;20004;-46
2022/01/07 01:53:21;;;;;;;;;;;20.10;39.80;;;;;;5096773;28;19969;-45
2022/01/07 01:55:48;;;;;;;;;;;20.10;39.80;;;;;;5097987;28;20005;-46
2022/01/07 01:58:15;;;;;;;;;;;20.10;39.70;;;;;;5097609;28;19996;-45
2022/01/07 02:00:41;;;;;;;;;;;20.10;39.80;;;;;;5096523;28;19935;-43
2022/01/07 02:03:08;;;;;;;;;;;20.10;39.70;;;;;;5097108;28;20018;-43
2022/01/07 02:05:37;;;;;;;;;;;20.10;39.80;;;;;;5096607;28;19928;-41
2022/01/07 02:08:04;;;;;;;;;;;20.10;39.70;;;;;;5097416;28;19992;-48
2022/01/07 02:10:31;;;;;;;;;;;20.10;39.70;;;;;;5095658;28;19946;-43
2022/01/07 02:12:57;;;;;;;;;;;20.10;39.70;;;;;;5116176;28;19920;-43
2022/01/07 02:15:24;;;;;;;;;;;20.10;39.70;;;;;;5113461;27;19920;-46
2022/01/07 02:17:53;;;;;;;;;;;20.10;39.70;;;;;;5100421;28;20028;-40
2022/01/07 02:20:22;;;;;;;;;;;20.10;39.70;;;;;;5103128;27;19930;-43
2022/01/07 02:22:48;;;;;;;;;;;20.10;39.70;;;;;;5100113;28;19924;-44
2022/01/07 02:25:15;;;;;;;;;;;20.10;39.70;;;;;;5089507;28;19924;-44
2022/01/07 02:27:42;;;;;;;;;;;20.10;39.70;;;;;;5100444;28;20380;-44
2022/01/07 02:30:10;;;;;;;;;;;20.10;39.70;;;;;;5101378;27;19934;-43
2022/01/07 02:32:37;;;;;;;;;;;20.10;39.70;;;;;;5081967;28;20017;-44
2022/01/07 02:35:04;;;;;;;;;;;20.10;39.70;;;;;;5081259;28;19924;-46
2022/01/07 02:37:32;;;;;;;;;;;20.10;39.70;;;;;;5100255;28;20031;-46
2022/01/07 02:39:59;;;;;;;;;;;20.10;39.60;;;;;;5100223;28;19932;-46
2022/01/07 02:42:26;;;;;;;;;;;20.10;39.70;;;;;;5096157;28;20047;-46
2022/01/07 02:44:53;;;;;;;;;;;20.10;39.70;;;;;;5079698;28;19932;-48
2022/01/07 02:47:21;;;;;;;;;;;20.10;39.60;;;;;;5081592;28;19982;-48
2022/01/07 02:49:48;;;;;;;;;;;20.10;39.70;;;;;;5096768;28;19924;-49
2022/01/07 02:52:15;;;;;;;;;;;20.10;39.60;;;;;;5096513;28;19923;-45
2022/01/07 02:54:43;;;;;;;;;;;20.10;39.70;;;;;;5100415;28;19930;-42
2022/01/07 02:57:10;;;;;;;;;;;20.10;39.70;;;;;;5090630;28;19924;-43
2022/01/07 02:59:37;;;;;;;;;;;20.10;39.70;;;;;;5099825;28;19931;-42
2022/01/07 03:02:04;;;;;;;;;;;20.10;39.60;;;;;;5082905;28;19934;-42
2022/01/07 03:04:31;;;;;;;;;;;20.10;39.60;;;;;;5081173;28;19924;-44
2022/01/07 03:06:57;;;;;;;;;;;20.10;39.60;;;;;;5094353;28;19928;-42
2022/01/07 03:09:24;;;;;;;;;;;20.10;39.60;;;;;;5100703;28;19936;-44
2022/01/07 03:11:53;;;;;;;;;;;20.10;39.60;;;;;;5110685;27;19923;-45
2022/01/07 03:14:23;;;;;;;;;;;20.10;39.60;;;;;;5120645;27;19930;-47
2022/01/07 03:16:52;;;;;;;;;;;20.10;39.60;;;;;;5100645;28;21819;-42
2022/01/07 03:19:18;;;;;;;;;;;20.10;39.60;;;;;;5080219;28;19978;-47
2022/01/07 03:21:45;;;;;;;;;;;20.10;39.60;;;;;;5099342;27;19924;-42
2022/01/07 03:24:12;;;;;;;;;;;20.10;39.60;;;;;;5113817;28;19977;-42
2022/01/07 03:26:39;;;;;;;;;;;20.10;39.60;;;;;;5106577;27;19924;-44
2022/01/07 03:29:07;;;;;;;;;;;20.10;39.60;;;;;;5094013;28;19932;-43
2022/01/07 03:31:34;;;;;;;;;;;20.10;39.60;;;;;;5099729;28;19958;-42
2022/01/07 03:34:01;;;;;;;;;;;20.10;39.60;;;;;;5099112;28;19931;-41
2022/01/07 03:36:28;;;;;;;;;;;20.10;39.60;;;;;;5097067;28;19987;-41
2022/01/07 03:38:56;;;;;;;;;;;20.10;39.60;;;;;;5119448;28;19927;-47
2022/01/07 03:41:23;;;;;;;;;;;20.10;39.60;;;;;;5101355;27;20033;-42
2022/01/07 03:43:50;;;;;;;;;;;20.00;39.50;;;;;;5081297;28;19990;-45
2022/01/07 03:46:19;;;;;;;;;;;20.10;39.60;;;;;;5080279;28;19932;-44
2022/01/07 03:48:45;;;;;;;;;;;20.10;39.60;;;;;;5119887;27;19958;-42
2022/01/07 03:51:12;;;;;;;;;;;20.10;39.60;;;;;;5112031;28;19928;-44
2022/01/07 03:53:40;;;;;;;;;;;20.00;39.50;;;;;;5106950;28;19966;-47
2022/01/07 03:56:07;;;;;;;;;;;20.10;39.60;;;;;;5101175;28;19969;-41
2022/01/07 03:58:33;;;;;;;;;;;20.10;39.60;;;;;;5115609;27;20076;-46
2022/01/07 04:01:03;;;;;;;;;;;20.10;39.60;;;;;;5095203;28;19950;-44
2022/01/07 04:03:31;;;;;;;;;;;20.00;39.50;;;;;;5113517;27;19924;-46
2022/01/07 04:05:58;;;;;;;;;;;20.00;39.50;;;;;;5117397;27;19919;-44
2022/01/07 04:08:25;;;;;;;;;;;20.10;39.60;;;;;;5098293;28;19924;-44
2022/01/07 04:10:52;;;;;;;;;;;20.10;39.50;;;;;;5097918;28;19963;-49
2022/01/07 04:13:19;;;;;;;;;;;20.00;39.40;;;;;;5109609;28;19951;-47
2022/01/07 04:15:46;;;;;;;;;;;20.10;39.50;;;;;;5098779;28;20444;-45
2022/01/07 04:18:12;;;;;;;;;;;20.00;39.50;;;;;;5088928;28;19947;-44
2022/01/07 04:20:41;;;;;;;;;;;20.10;39.50;;;;;;5093600;28;20367;-44
2022/01/07 04:23:08;;;;;;;;;;;20.10;39.50;;;;;;5097663;28;20378;-46
2022/01/07 04:25:35;;;;;;;;;;;20.00;39.40;;;;;;5116952;28;20410;-44
2022/01/07 04:28:05;;;;;;;;;;;20.10;39.50;;;;;;5123434;27;20400;-46
2022/01/07 04:30:33;;;;;;;;;;;20.00;39.40;;;;;;5119131;27;20249;-49
2022/01/07 04:33:01;;;;;;;;;;;20.00;39.40;;;;;;5101527;28;20026;-49
2022/01/07 04:35:28;;;;;;;;;;;20.00;39.40;;;;;;5098199;28;20001;-43
2022/01/07 04:37:56;;;;;;;;;;;20.00;39.40;;;;;;5103239;27;19967;-42
2022/01/07 04:40:27;;;;;;;;;;;20.00;39.40;;;;;;5118579;27;19984;-42
2022/01/07 04:42:54;;;;;;;;;;;20.00;39.40;;;;;;5097239;28;19935;-43
2022/01/07 04:45:21;;;;;;;;;;;20.00;40.00;;;;;;5093722;28;20284;-47
2022/01/07 04:47:48;;;;;;;;;;;20.00;39.40;;;;;;5092346;28;19924;-43
2022/01/07 04:50:15;;;;;;;;;;;20.00;39.40;;;;;;5112191;28;19927;-48
2022/01/07 04:52:44;;;;;;;;;;;20.00;39.40;;;;;;5096882;28;19962;-46
2022/01/07 04:55:12;;;;;;;;;;;20.00;39.40;;;;;;5099103;28;20012;-46
2022/01/07 04:57:39;;;;;;;;;;;20.00;39.40;;;;;;5097974;28;19927;-45
2022/01/07 05:00:07;;;;;;;;;;;20.00;39.40;;;;;;5108343;28;20011;-42
2022/01/07 05:02:34;;;;;;;;;;;20.00;39.40;;;;;;5098900;28;19924;-45
2022/01/07 05:05:01;;;;;;;;;;;20.00;39.30;;;;;;5131797;27;19994;-47
2022/01/07 05:07:27;;;;;;;;;;;20.00;39.30;;;;;;5099221;28;19959;-41
2022/01/07 05:09:54;;;;;;;;;;;20.00;39.30;;;;;;5114434;27;19923;-42
2022/01/07 05:12:23;;;;;;;;;;;20.00;39.30;;;;;;5103849;28;20412;-44
2022/01/07 05:14:49;;;;;;;;;;;20.00;39.30;;;;;;5087322;28;19935;-44
2022/01/07 05:17:16;;;;;;;;;;;20.00;39.30;;;;;;5106367;28;19924;-42
2022/01/07 05:19:43;;;;;;;;;;;20.00;39.30;;;;;;5110835;28;19930;-43
2022/01/07 05:22:10;;;;;;;;;;;20.00;39.30;;;;;;5111306;28;20345;-44
2022/01/07 05:24:37;;;;;;;;;;;20.00;39.30;;;;;;5091961;28;19928;-44
2022/01/07 05:27:04;;;;;;;;;;;20.00;39.30;;;;;;5085843;28;19924;-44
2022/01/07 05:29:34;;;;;;;;;;;20.00;39.30;;;;;;5107022;28;20006;-46
2022/01/07 05:32:01;;;;;;;;;;;20.00;39.30;;;;;;5104725;28;19932;-44
2022/01/07 05:34:28;;;;;;;;;;;20.00;39.30;;;;;;5102513;28;19927;-44
2022/01/07 05:36:55;;;;;;;;;;;20.00;39.30;;;;;;5120396;28;19966;-43
2022/01/07 05:39:21;;;;;;;;;;;20.00;39.30;;;;;;5122773;28;20463;-44
2022/01/07 05:41:48;;;;;;;;;;;20.00;39.30;;;;;;5097444;28;19923;-45
2022/01/07 05:44:15;;;;;;;;;;;20.00;39.30;;;;;;5095230;28;19932;-43
2022/01/07 05:46:43;;;;;;;;;;;20.00;39.30;;;;;;5083241;28;20284;-41
2022/01/07 05:49:10;;;;;;;;;;;20.00;39.30;;;;;;5103668;27;19928;-46
2022/01/07 05:51:37;;;;;;;;;;;20.00;39.30;;;;;;5103732;28;19935;-45
2022/01/07 05:54:05;;;;;;;;;;;20.00;39.30;;;;;;5103124;28;19973;-47
2022/01/07 05:56:32;;;;;;;;;;;20.00;39.30;;;;;;5105515;27;19928;-45
2022/01/07 05:58:59;;;;;;;;;;;20.00;39.30;;;;;;5102454;28;19927;-43
2022/01/07 06:01:26;;;;;;;;;;;20.00;39.30;;;;;;5098631;28;19995;-46
2022/01/07 06:03:55;;;;;;;;;;;20.00;39.30;;;;;;5085208;28;19927;-43
2022/01/07 06:06:21;;;;;;;;;;;20.00;39.30;;;;;;5112768;28;19950;-48
2022/01/07 06:08:48;;;;;;;;;;;20.00;39.30;;;;;;5084394;28;19927;-47
2022/01/07 06:11:15;;;;;;;;;;;20.00;39.30;;;;;;5114826;27;20117;-41
2022/01/07 06:13:43;;;;;;;;;;;20.00;39.30;;;;;;5100451;28;19984;-43
2022/01/07 06:16:09;;;;;;;;;;;20.00;39.30;;;;;;5102222;28;19924;-44
2022/01/07 06:18:40;;;;;;;;;;;20.00;39.30;;;;;;5095395;28;19930;-44
2022/01/07 06:21:08;;;;;;;;;;;20.00;39.30;;;;;;5108589;27;19923;-43
2022/01/07 06:23:35;;;;;;;;;;;20.00;39.30;;;;;;5105682;28;20343;-46
2022/01/07 06:26:02;;;;;;;;;;;20.00;39.30;;;;;;5096817;28;19928;-43
2022/01/07 06:28:29;;;;;;;;;;;20.00;39.30;;;;;;5115006;28;19970;-42
2022/01/07 06:30:58;;;;;;;;;;;20.00;39.30;;;;;;5100814;28;19938;-46
2022/01/07 06:33:28;;;;;;;;;;;20.00;39.30;;;;;;5102418;28;19934;-44
2022/01/07 06:35:55;;;;;;;;;;;20.00;39.30;;;;;;5097544;28;19996;-48
2022/01/07 06:38:23;;;;;;;;;;;20.00;39.30;;;;;;5105350;28;19935;-43
2022/01/07 06:40:50;;;;;;;;;;;20.00;39.30;;;;;;5120505;27;19946;-46
2022/01/07 06:43:17;;;;;;;;;;;20.00;39.30;;;;;;5095127;28;20292;-44
2022/01/07 06:45:44;;;;;;;;;;;20.00;39.30;;;;;;5098028;28;19991;-45
2022/01/07 06:48:10;;;;;;;;;;;20.00;39.30;;;;;;5101097;28;20015;-43
2022/01/07 06:50:37;;;;;;;;;;;20.00;39.30;;;;;;5121359;27;20040;-46
2022/01/07 06:53:04;;;;;;;;;;;20.00;39.30;;;;;;5100290;28;19927;-42
2022/01/07 06:55:32;;;;;;;;;;;20.00;39.30;;;;;;5119380;27;19977;-45
2022/01/07 06:57:59;;;;;;;;;;;20.00;39.30;;;;;;5096789;28;19931;-44
2022/01/07 07:00:26;;;;;;;;;;;20.00;39.90;;;;;;5118809;27;19962;-43
2022/01/07 07:02:53;;;;;;;;;;;20.00;39.30;;;;;;5117509;28;20391;-47
2022/01/07 07:05:20;;;;;;;;;;;20.00;39.30;;;;;;5100345;28;19951;-45
2022/01/07 07:07:47;;;;;;;;;;;20.00;39.30;;;;;;5095179;28;20360;-46
2022/01/07 07:10:14;;;;;;;;;;;20.00;39.20;;;;;;5097825;28;19993;-44
2022/01/07 07:12:42;;;;;;;;;;;20.00;39.30;;;;;;5101256;28;19930;-44
2022/01/07 07:15:09;;;;;;;;;;;20.00;39.30;;;;;;5095521;28;19986;-45
2022/01/07 07:17:36;;;;;;;;;;;20.00;39.30;;;;;;5098349;28;19937;-45
2022/01/07 07:20:03;;;;;;;;;;;20.00;39.20;;;;;;5100708;28;20022;-44
2022/01/07 07:22:30;;;;;;;;;;;20.00;39.30;;;;;;5093431;28;19927;-46
2022/01/07 07:24:57;;;;;;;;;;;20.00;39.20;;;;;;5100177;28;19945;-44
2022/01/07 07:27:24;;;;;;;;;;;20.00;39.20;;;;;;5099989;28;19924;-43
2022/01/07 07:29:52;;;;;;;;;;;20.00;39.20;;;;;;5099225;28;19991;-44
2022/01/07 07:32:24;;;;;;;;;;;20.00;39.20;;;;;;5113120;28;20372;-46
2022/01/07 07:35:01;;;;;;;;;;;20.00;39.20;;;;;;5118465;28;19942;-45
2022/01/07 07:37:28;;;;;;;;;;;20.00;39.20;;;;;;5098517;28;19927;-44
2022/01/07 07:39:54;;;;;;;;;;;20.00;39.20;;;;;;5097313;28;19931;-41
2022/01/07 07:42:21;;;;;;;;;;;20.00;39.20;;;;;;5097967;28;20010;-42
2022/01/07 07:44:48;;;;;;;;;;;20.00;39.20;;;;;;5100235;27;20008;-43
2022/01/07 07:47:17;;;;;;;;;;;20.00;39.20;;;;;;5091680;28;19938;-48
2022/01/07 07:49:43;;;;;;;;;;;20.00;39.20;;;;;;5098003;28;19941;-49
2022/01/07 07:52:13;;;;;;;;;;;20.00;39.20;;;;;;5099451;28;19923;-44
2022/01/07 07:54:40;;;;;;;;;;;20.00;39.20;;;;;;5094678;28;20376;-47
2022/01/07 07:57:07;;;;;;;;;;;20.00;39.20;;;;;;5100018;28;19957;-43
2022/01/07 07:59:34;;;;;;;;;;;20.00;39.80;;;;;;5099365;28;19931;-46
2022/01/07 08:02:02;;;;;;;;;;;20.00;39.20;;;;;;5098717;28;20108;-42
2022/01/07 08:04:30;;;;;;;;;;;20.00;39.20;;;;;;5118303;28;19924;-44
2022/01/07 08:06:57;;;;;;;;;;;20.00;39.20;;;;;;5099147;28;19927;-46
2022/01/07 08:09:25;;;;;;;;;;;20.00;39.20;;;;;;5099268;28;20018;-44
2022/01/07 08:11:57;;;;;;;;;;;20.00;39.20;;;;;;5098842;28;19935;-48
2022/01/07 08:17:08;;;;;;;;;;;20.00;39.20;;;;;;5079433;28;20445;-43
2022/01/07 08:19:36;;;;;;;;;;;20.00;39.30;;;;;;5092024;28;19934;-43
2022/01/07 08:22:06;;;;;;;;;;;20.00;39.20;;;;;;5093936;28;19932;-43
2022/01/07 08:24:34;;;;;;;;;;;20.00;39.30;;;;;;5089050;28;19930;-46
2022/01/07 08:27:01;;;;;;;;;;;20.00;39.30;;;;;;5093739;28;20325;-53
2022/01/07 08:29:31;;;;;;;;;;;20.00;39.20;;;;;;5096223;28;20322;-45
2022/01/07 08:34:57;;;;;;;;;;;20.00;38.50;;;;;;5105690;28;19923;-45
2022/01/07 08:37:25;;;;;;;;;;;19.90;38.50;;;;;;5102466;28;19928;-45
2022/01/07 08:39:53;;;;;;;;;;;19.90;38.70;;;;;;5087092;28;19950;-42
2022/01/07 08:42:21;;;;;;;;;;;19.90;38.70;;;;;;5113062;28;19923;-47
2022/01/07 08:44:48;;;;;;;;;;;19.90;38.80;;;;;;5112210;28;20330;-48
2022/01/07 08:47:15;;;;;;;;;;;19.90;38.80;;;;;;5090603;28;20458;-41
2022/01/07 08:49:41;;;;;;;;;;;19.90;38.80;;;;;;5110861;28;19955;-42
2022/01/07 08:52:10;;;;;;;;;;;19.90;38.90;;;;;;5088580;28;20408;-44
2022/01/07 08:54:39;;;;;;;;;;;19.90;38.90;;;;;;5112588;28;19932;-42
2022/01/07 08:57:06;;;;;;;;;;;19.90;38.90;;;;;;5111339;28;19932;-43
2022/01/07 08:59:33;;;;;;;;;;;19.90;39.00;;;;;;5087223;28;20022;-43
2022/01/07 09:02:00;;;;;;;;;;;20.00;39.10;;;;;;5080359;28;20182;-47
2022/01/07 09:04:28;;;;;;;;;;;20.00;39.10;;;;;;5088430;28;19999;-44
2022/01/07 09:06:54;;;;;;;;;;;20.00;39.20;;;;;;5095925;28;19995;-44
2022/01/07 09:09:23;;;;;;;;;;;20.00;39.10;;;;;;5095111;28;19924;-46
2022/01/07 09:11:49;;;;;;;;;;;20.00;39.20;;;;;;5096374;28;19931;-42
2022/01/07 09:14:16;;;;;;;;;;;20.00;39.20;;;;;;5094494;28;20002;-47
2022/01/07 09:16:43;;;;;;;;;;;20.00;39.20;;;;;;5094217;28;19976;-45
2022/01/07 09:19:10;;;;;;;;;;;20.00;39.20;;;;;;5091013;28;19955;-44
2022/01/07 09:21:37;;;;;;;;;;;20.00;39.20;;;;;;5093983;28;19986;-44
2022/01/07 09:24:04;;;;;;;;;;;20.00;39.30;;;;;;5108829;28;19928;-44
2022/01/07 09:26:32;;;;;;;;;;;20.00;39.30;;;;;;5093699;28;19923;-45
2022/01/07 09:28:59;;;;;;;;;;;20.00;39.30;;;;;;5092510;28;19934;-46
2022/01/07 09:31:26;;;;;;;;;;;20.00;39.30;;;;;;5095731;28;19923;-43
2022/01/07 09:33:52;;;;;;;;;;;20.00;39.30;;;;;;5088676;28;20383;-42
2022/01/07 09:36:19;;;;;;;;;;;20.00;39.30;;;;;;5095500;28;19950;-42
2022/01/07 09:38:46;;;;;;;;;;;20.00;39.30;;;;;;5094549;28;19928;-43
2022/01/07 09:41:13;;;;;;;;;;;20.00;39.30;;;;;;5110771;28;20014;-44
2022/01/07 09:43:43;;;;;;;;;;;20.00;39.30;;;;;;5087022;28;19935;-47
2022/01/07 09:46:12;;;;;;;;;;;20.00;39.30;;;;;;5090839;28;19924;-44
2022/01/07 09:48:39;;;;;;;;;;;20.00;39.30;;;;;;5094812;28;19928;-45
2022/01/07 09:51:05;;;;;;;;;;;20.00;39.30;;;;;;5095382;28;19997;-46
2022/01/07 09:53:33;;;;;;;;;;;20.00;39.30;;;;;;5093725;28;19966;-47
2022/01/07 09:56:00;;;;;;;;;;;20.00;39.30;;;;;;5090080;28;19970;-49
2022/01/07 09:58:27;;;;;;;;;;;20.10;39.40;;;;;;5093806;28;19951;-43
2022/01/07 10:01:00;;;;;;;;;;;20.00;39.40;;;;;;5109301;28;19927;-44
2022/01/07 10:03:27;;;;;;;;;;;20.10;39.50;;;;;;5094121;28;19935;-43
2022/01/07 10:05:54;;;;;;;;;;;20.10;39.50;;;;;;5094001;28;19928;-48
2022/01/07 10:08:23;;;;;;;;;;;20.10;39.50;;;;;;5111136;28;19924;-45
2022/01/07 10:11:05;;;;;;;;;;;20.10;39.50;;;;;;5095734;28;19981;-42
2022/01/07 10:13:31;;;;;;;;;;;20.10;39.50;;;;;;5090786;28;19924;-42
2022/01/07 10:15:59;;;;;;;;;;;20.10;39.50;;;;;;5113402;28;19932;-45
2022/01/07 10:18:35;;;;;;;;;;;20.10;39.50;;;;;;5112510;28;20323;-47
2022/01/07 10:21:07;;;;;;;;;;;20.10;39.50;;;;;;5093667;28;19924;-41
2022/01/07 10:23:34;;;;;;;;;;;20.10;39.50;;;;;;5105612;28;19927;-49
2022/01/07 10:26:01;;;;;;;;;;;20.10;39.60;;;;;;5083715;28;20372;-46
2022/01/07 10:28:29;;;;;;;;;;;20.10;39.50;;;;;;5083498;28;19932;-42
2022/01/07 10:30:56;;;;;;;;;;;20.10;39.60;;;;;;5090296;28;19928;-47
2022/01/07 10:33:25;;;;;;;;;;;20.10;39.60;;;;;;5088102;28;20076;-47
2022/01/07 10:35:53;;;;;;;;;;;20.10;39.60;;;;;;5093603;28;19928;-44
2022/01/07 10:38:20;;;;;;;;;;;20.10;39.60;;;;;;5091336;28;19942;-44
2022/01/07 10:40:47;;;;;;;;;;;20.10;39.60;;;;;;5094332;28;19950;-45
2022/01/07 10:43:15;;;;;;;;;;;20.10;39.60;;;;;;5084960;28;19924;-44
2022/01/07 10:45:43;;;;;;;;;;;20.10;39.60;;;;;;5089146;28;20018;-46
2022/01/07 10:48:10;;;;;;;;;;;20.10;39.60;;;;;;5103637;28;19977;-46
2022/01/07 10:50:39;;;;;;;;;;;20.10;39.60;;;;;;5095792;28;20051;-43
2022/01/07 10:53:17;;;;;;;;;;;20.10;39.60;;;;;;5105687;28;19924;-49
2022/01/07 10:55:58;;;;;;;;;;;20.10;39.60;;;;;;5080759;28;19928;-47
2022/01/07 10:58:27;;;;;;;;;;;20.10;39.60;;;;;;5089220;28;19923;-46
2022/01/07 11:00:54;;;;;;;;;;;20.10;39.70;;;;;;5088722;28;19927;-46
2022/01/07 11:03:20;;;;;;;;;;;20.10;39.70;;;;;;5086717;28;19928;-43
2022/01/07 11:05:49;;;;;;;;;;;20.10;39.70;;;;;;5089330;28;20014;-45
2022/01/07 11:08:15;;;;;;;;;;;20.10;39.90;;;;;;5098905;28;19920;-44
2022/01/07 11:10:42;;;;;;;;;;;20.10;39.90;;;;;;5109544;28;19928;-45
2022/01/07 11:13:09;;;;;;;;;;;20.20;40.20;;;;;;5066439;28;19939;-42
2022/01/07 11:15:36;;;;;;;;;;;20.20;40.20;;;;;;5098076;28;19932;-49
2022/01/07 11:18:03;;;;;;;;;;;20.20;40.30;;;;;;5081136;28;19928;-42
2022/01/07 11:20:30;;;;;;;;;;;20.20;40.20;;;;;;5113111;28;19927;-44
2022/01/07 11:22:58;;;;;;;;;;;20.20;40.30;;;;;;5091569;28;19970;-44
2022/01/07 11:25:30;;;;;;;;;;;20.20;40.30;;;;;;5105799;28;20217;-47
2022/01/07 11:27:59;;;;;;;;;;;20.20;40.30;;;;;;5090576;28;20329;-43
2022/01/07 11:30:28;;;;;;;;;;;20.20;40.30;;;;;;5094769;28;19923;-44
2022/01/07 11:32:55;;;;;;;;;;;20.30;40.30;;;;;;5091069;28;19936;-41
2022/01/07 11:35:41;;;;;;;;;;;20.30;40.40;;;;;;5092627;28;19932;-47
2022/01/07 11:38:14;;;;;;;;;;;20.30;40.50;;;;;;5095053;28;19931;-48
2022/01/07 11:40:44;;;;;;;;;;;20.30;40.50;;;;;;5093231;28;19943;-47
2022/01/07 11:43:24;;;;;;;;;;;20.30;40.50;;;;;;5098851;28;19924;-44
2022/01/07 11:45:51;;;;;;;;;;;20.30;40.50;;;;;;5083119;28;19934;-46
2022/01/07 11:48:18;;;;;;;;;;;20.30;40.60;;;;;;5084164;28;19924;-43
2022/01/07 11:50:46;;;;;;;;;;;20.30;40.60;;;;;;5098736;28;19924;-48
2022/01/07 11:53:14;;;;;;;;;;;20.30;40.60;;;;;;5086102;28;19961;-43
2022/01/07 11:55:41;;;;;;;;;;;20.30;40.70;;;;;;5092900;28;19963;-44
2022/01/07 11:58:09;;;;;;;;;;;20.30;40.60;;;;;;5106669;28;19928;-47
2022/01/07 12:00:49;;;;;;;;;;;20.40;40.80;;;;;;5095241;28;19924;-44
2022/01/07 12:03:29;;;;;;;;;;;20.40;40.70;;;;;;5085782;28;19938;-48
2022/01/07 12:05:56;;;;;;;;;;;20.40;41.30;;;;;;5098550;28;19927;-47
2022/01/07 12:08:38;;;;;;;;;;;20.40;40.70;;;;;;5085014;28;19927;-42
2022/01/07 12:11:10;;;;;;;;;;;20.40;40.70;;;;;;5080643;28;19942;-47
2022/01/07 12:13:38;;;;;;;;;;;20.40;40.70;;;;;;5085466;28;20010;-46
2022/01/07 12:16:05;;;;;;;;;;;20.40;40.70;;;;;;5084810;28;19938;-42
2022/01/07 12:18:32;;;;;;;;;;;20.40;40.70;;;;;;5100998;28;19966;-47
2022/01/07 12:20:59;;;;;;;;;;;20.40;40.70;;;;;;5103985;28;20014;-46
2022/01/07 12:23:26;;;;;;;;;;;20.40;40.70;;;;;;5085209;28;20050;-44
2022/01/07 12:25:53;;;;;;;;;;;20.40;40.70;;;;;;5084265;28;19930;-43
2022/01/07 12:28:22;;;;;;;;;;;20.40;40.70;;;;;;5077809;28;20015;-41
2022/01/07 12:30:50;;;;;;;;;;;20.40;40.70;;;;;;5084545;28;19923;-47
2022/01/07 12:33:17;;;;;;;;;;;20.40;40.70;;;;;;5087153;28;20321;-54
2022/01/07 12:35:44;;;;;;;;;;;20.40;40.70;;;;;;5083680;28;19924;-51
2022/01/07 12:38:12;;;;;;;;;;;20.40;40.70;;;;;;5106729;28;19923;-49
2022/01/07 12:40:38;;;;;;;;;;;20.40;40.60;;;;;;5087280;28;19947;-54
2022/01/07 12:43:05;;;;;;;;;;;20.40;40.50;;;;;;5089943;28;19927;-54
2022/01/07 12:45:33;;;;;;;;;;;20.40;40.30;;;;;;5091975;28;19938;-56
2022/01/07 12:48:00;;;;;;;;;;;20.40;40.20;;;;;;5088858;28;19947;-45
2022/01/07 12:50:29;;;;;;;;;;;20.30;40.00;;;;;;5094011;28;19954;-50
2022/01/07 12:52:56;;;;;;;;;;;20.30;39.90;;;;;;5093192;28;19935;-50
2022/01/07 12:55:23;;;;;;;;;;;20.30;39.80;;;;;;5090421;28;19927;-55
2022/01/07 12:57:51;;;;;;;;;;;20.30;39.80;;;;;;5089727;28;19924;-52
2022/01/07 13:00:19;;;;;;;;;;;20.30;39.80;;;;;;5092001;28;19923;-50
2022/01/07 13:02:48;;;;;;;;;;;20.30;39.70;;;;;;5089139;28;19931;-53
2022/01/07 13:05:22;;;;;;;;;;;20.30;39.70;;;;;;5093272;28;19975;-52
2022/01/07 13:07:49;;;;;;;;;;;20.30;39.70;;;;;;5089895;28;19950;-45
2022/01/07 13:10:21;;;;;;;;;;;20.30;39.70;;;;;;5095525;28;19923;-51
2022/01/07 13:12:58;;;;;;;;;;;20.30;39.70;;;;;;5087757;28;19966;-57
2022/01/07 13:15:34;;;;;;;;;;;20.20;39.50;;;;;;5106429;28;20448;-48
2022/01/07 13:18:14;;;;;;;;;;;20.20;39.30;;;;;;5093731;28;20014;-50
2022/01/07 13:20:42;;;;;;;;;;;20.20;39.10;;;;;;5092355;28;19938;-56
2022/01/07 13:23:08;;;;;;;;;;;20.20;39.00;;;;;;5109837;28;19931;-54
2022/01/07 13:25:36;;;;;;;;;;;20.20;39.40;;;;;;5108830;28;19935;-49
2022/01/07 13:28:03;;;;;;;;;;;20.20;38.70;;;;;;5092807;28;20024;-48
2022/01/07 13:30:34;;;;;;;;;;;20.10;39.10;;;;;;5077537;28;19927;-51
2022/01/07 13:33:05;;;;;;;;;;;20.10;38.30;;;;;;5091198;28;19927;-47
2022/01/07 13:35:35;;;;;;;;;;;20.10;38.20;;;;;;5088768;28;19963;-47
2022/01/07 13:38:02;;;;;;;;;;;20.10;38.10;;;;;;5088749;28;19995;-55
2022/01/07 13:40:29;;;;;;;;;;;20.10;38.10;;;;;;5108991;28;20372;-51
2022/01/07 13:43:05;;;;;;;;;;;20.10;38.10;;;;;;5102014;28;20019;-50
2022/01/07 13:45:33;;;;;;;;;;;20.00;38.10;;;;;;5082011;28;19928;-53
2022/01/07 13:48:04;;;;;;;;;;;20.00;38.10;;;;;;5088468;28;20183;-54
2022/01/07 13:50:31;;;;;;;;;;;20.00;38.00;;;;;;5093103;28;19927;-51
2022/01/07 13:53:00;;;;;;;;;;;20.00;38.00;;;;;;5088184;28;19980;-51
2022/01/07 13:55:28;;;;;;;;;;;20.00;38.00;;;;;;5078153;28;19927;-51
2022/01/07 13:58:04;;;;;;;;;;;20.00;38.00;;;;;;5098356;28;19977;-53
2022/01/07 14:00:31;;;;;;;;;;;19.90;37.90;;;;;;5080071;28;19923;-51
2022/01/07 14:02:58;;;;;;;;;;;19.90;37.90;;;;;;5109459;28;19946;-54
2022/01/07 14:05:25;;;;;;;;;;;19.90;37.80;;;;;;5080534;28;19932;-56
2022/01/07 14:07:53;;;;;;;;;;;19.90;37.80;;;;;;5083997;28;19928;-51
2022/01/07 14:10:23;;;;;;;;;;;19.90;37.80;;;;;;5113429;28;19927;-53
2022/01/07 14:12:52;;;;;;;;;;;19.90;37.90;;;;;;5097271;28;20006;-49
2022/01/07 14:15:20;;;;;;;;;;;19.90;37.90;;;;;;5094343;28;20026;-56
2022/01/07 14:17:47;;;;;;;;;;;19.90;38.00;;;;;;5095008;28;19959;-46
2022/01/07 14:20:14;;;;;;;;;;;19.90;38.00;;;;;;5091697;28;19928;-54
2022/01/07 14:22:44;;;;;;;;;;;19.90;38.20;;;;;;5095891;28;19924;-43
2022/01/07 14:25:12;;;;;;;;;;;19.90;38.10;;;;;;5106755;28;19930;-51